Shenanigans — WDI4966 — position and weather

sailwx.info

Track history (hours):
 
Tides and Currents Weather Stations Pressure Air Temp Water Temp Dewpoint Dewpoint Depression Visibility Wind Speed Wind Dir Waves Ship Positions

Shenanigans

Owner: Allestad, Raymond O, Columbus, MT. More information available from US FCC via Universal Licensing System and Coast Guard Vessel Documentation Center.

Last reported at 2017-Nov-20 00:30 UTC. Time now 2017-Dec-15 08:15 UTC.
Position N 47°49' W 122°27'.
Warning: this ship's position is 25 days out of date.

Length 12 m.

Type: Pleasure craft. MMSI: 367703830.

Date/timePositionNaut miles runAvg speedWind from/ knotsBaromVisibWave heightAir tempDewpointWater temp
2017-Nov-20 00:30N 47°49' W 122°27'1 2.5
2017-Nov-19 23:54N 47°48' W 122°29'0 0.0
2017-Nov-19 23:27N 47°48' W 122°29'1 1.9
2017-Nov-19 22:59N 47°48' W 122°30'0 0.1
2017-Nov-19 21:30N 47°48' W 122°30'0 0.0
2017-Nov-19 19:33N 47°48' W 122°30'0 2.8
2017-Nov-19 19:30N 47°48' W 122°30'2 4.6
2017-Nov-19 19:00N 47°50' W 122°28'3 6.1
2017-Nov-19 18:30N 47°52' W 122°25'3 5.9
2017-Nov-19 18:00N 47°54' W 122°22'3 5.5
2017-Nov-19 17:28N 47°57' W 122°20'  
Track history (hours):
 
Tides and Currents Weather Stations Pressure Air Temp Water Temp Dewpoint Dewpoint Depression Visibility Wind Speed Wind Dir Waves Ship Positions

Shenanigans

Owner: Allestad, Raymond O, Columbus, MT. More information available from US FCC via Universal Licensing System and Coast Guard Vessel Documentation Center.

Last reported at 2017-Nov-20 00:30 UTC. Time now 2017-Dec-15 08:15 UTC.
Position N 47°49' W 122°27'.
Warning: this ship's position is 25 days out of date.

Length 12 m.

Type: Pleasure craft. MMSI: 367703830.

Date/timePositionNaut miles runAvg speedWind from/ knotsBaromVisibWave heightAir tempDewpointWater temp
2017-Nov-20 00:30N 47°49' W 122°27'1 2.5
2017-Nov-19 23:54N 47°48' W 122°29'0 0.0
2017-Nov-19 23:27N 47°48' W 122°29'1 1.9
2017-Nov-19 22:59N 47°48' W 122°30'0 0.1
2017-Nov-19 21:30N 47°48' W 122°30'0 0.0
2017-Nov-19 19:33N 47°48' W 122°30'0 2.8
2017-Nov-19 19:30N 47°48' W 122°30'2 4.6
2017-Nov-19 19:00N 47°50' W 122°28'3 6.1
2017-Nov-19 18:30N 47°52' W 122°25'3 5.9
2017-Nov-19 18:00N 47°54' W 122°22'3 5.5
2017-Nov-19 17:28N 47°57' W 122°20'  

Dump ship's entire track history